Flight Track Log - Related Links

Times and Time Zones

All times are in EDT time to prevent confusion due to time zone crossing. See the DAL126 flight status page for this flight to view local times or setup timezone preferences in your user account.

Time Position Orientation Groundspeed Altitude Reporting Facility
EDT Latitude Longitude Course Direction KTS MPH feet Rate Location/Type
Sun 09:02:01 PM 40.5833 -73.8167 153° Southeast 204 235 2,200  Level New York TRACON
Sun 09:03:01 PM 40.5333 -73.7833 105° East 286 329 4,900 2,725 Climbing New York TRACON
Sun 09:05:28 PM 40.4794 -73.5269 125° Southeast 310 357 11,600 2,058 Climbing New York Center
Sun 09:06:28 PM 40.4256 -73.4264 125° Southeast 353 406 12,000 1,008 Climbing New York Center
Sun 09:07:27 PM 40.3594 -73.3042 126° Southeast 378 435 13,600 1,008 Climbing New York Center
Sun 09:08:27 PM 40.2994 -73.1958 129° Southeast 392 451 14,000 492 Climbing New York Center
Sun 09:09:29 PM 40.2247 -73.0736 127° Southeast 392 451 14,600 1,587 Climbing New York Center
Sun 09:10:28 PM 40.1542 -72.9517 128° Southeast 404 465 17,200 2,521 Climbing New York Center
Sun 09:11:28 PM 40.0792 -72.8272 128° Southeast 423 487 19,600 2,350 Climbing New York Center
Sun 09:12:28 PM 40.0022 -72.6975 123° Southeast 436 502 21,900 2,083 Climbing New York Center
Sun 09:13:29 PM 39.9336 -72.5578 89° East 452 520 23,800 1,881 Climbing New York Center
Sun 09:14:26 PM 39.9364 -72.3817 76° East 444 511 25,600 1,780 Climbing New York Center
Sun 09:15:27 PM 39.9656 -72.2228 87° East 478 550 27,300 1,869 Climbing New York Center
Sun 09:16:28 PM 39.9739 -72.0414 86° East 483 556 29,400 2,017 Climbing New York Center
Sun 09:17:26 PM 39.9842 -71.8600 86° East 489 563 31,300 1,815 Climbing New York Center
Sun 09:18:27 PM 39.9939 -71.6842 87° East 495 570 33,000 1,587 Climbing New York Center
Sun 09:19:27 PM 40.0017 -71.5053 88° East 495 570 34,500 992 Climbing New York Center
Sun 09:20:28 PM 40.0067 -71.3267 86° East 495 570 35,000 248 Climbing New York Center
Sun 09:21:28 PM 40.0158 -71.1506 85° East 495 570 35,000  Level New York Center
Sun 09:22:26 PM 40.0267 -70.9717 88° East 489 563 35,000 559 Level New York Center
Sun 09:23:26 PM 40.0311 -70.8011 87° East 483 556 36,100 1,000 Climbing New York Center
Sun 09:24:26 PM 40.0375 -70.6275 87° East 478 550 37,000 446 Climbing New York Center
Sun 09:25:27 PM 40.0433 -70.4622 86° East 478 550 37,000  Level New York Center
Sun 09:26:27 PM 40.0514 -70.2939 88° East 468 539 37,000  Level New York Center
Sun 09:27:28 PM 40.0569 -70.1231 88° East 468 539 37,000  Level New York Center
Sun 09:28:26 PM 40.0619 -69.9522 88° East 468 539 37,000  Level New York Center
Sun 09:29:27 PM 40.0669 -69.7733 87° East 478 550 37,000  Level New York Center
Sun 09:30:28 PM 40.0739 -69.6022 88° East 478 550 37,000  Level New York Center
Sun 09:31:28 PM 40.0783 -69.4231 89° East 478 550 37,000  Level New York Center
Sun 09:32:29 PM 40.0806 -69.2442 87° East 478 550 37,000  Level New York Center
Sun 09:33:26 PM 40.0867 -69.0731 88° East 478 550 37,000  Level New York Center
Sun 09:34:27 PM 40.0903 -68.8994 89° East 483 556 37,000  Level New York Center
Sun 09:35:26 PM 40.0936 -68.7256 88° East 478 550 37,000  Level New York Center
Sun 09:36:26 PM 40.0969 -68.5572 89° East 473 544 37,000  Level New York Center
Sun 09:37:27 PM 40.1000 -68.3836 88° East 473 544 37,000  Level New York Center
Sun 09:38:27 PM 40.1050 -68.2125 90° East 473 544 37,000  Level New York Center
Sun 09:39:28 PM 40.1053 -68.0414 88° East 473 544 37,000  Level New York Center
Sun 09:40:26 PM 40.1097 -67.8731 88° East 473 544 37,000  Level New York Center
Sun 09:41:27 PM 40.1139 -67.6992 90° East 473 544 37,000  Level New York Center
Sun 09:42:27 PM 40.1131 -67.5119 89° East 473 544 37,000  Level New York Center
Sun 09:43:28 PM 40.1144 -67.3383 89° East 479 551 37,000  Level New York Center
Sun 09:44:28 PM 40.1158 -67.1644 90° East 479 551 37,000  Level New York Center
Sun 09:45:37 PM 40.1167 -67.0000 79° East 469 540 37,000  Level New York Oceanic (ODAPS)
Sun 09:46:12 PM 40.1333 -66.8833 79° East 469 540 37,000  Level New York Oceanic (ODAPS)
Sun 09:49:28 PM 40.2167 -66.3167 79° East 467 537 37,000  Level New York Oceanic (ODAPS)
Sun 10:10:40 PM 40.6833 -62.9333 81° East 457 526 37,000  Level New York Oceanic (ODAPS)
Sun 10:28:06 PM 41.0000 -60.0000 78° East 468 539 37,000  Level New York Oceanic (ODAPS)
Sun 10:30:12 PM 41.0667 -59.5667 80° East 472 543 37,000  Level New York Oceanic (ODAPS)
Sun 10:50:24 PM 41.4833 -56.1833 81° East 461 531 37,000  Level New York Oceanic (ODAPS)
Sun 11:10:40 PM 41.8167 -52.7833 84° East 459 528 37,000  Level New York Oceanic (ODAPS)
Sun 11:27:14 PM 42.0000 -50.0000 72° East 482 555 37,000  Level New York Oceanic (ODAPS)
Sun 11:30:59 PM 42.1667 -49.3167 72° East 492 566 37,000  Level New York Oceanic (ODAPS)
Sun 11:51:13 PM 42.9500 -45.8167 74° East 499 574 37,000  Level New York Oceanic (ODAPS)
Mon 12:11:30 AM 43.6667 -42.0667 78° East 505 581 37,000  Level New York Oceanic (ODAPS)
Mon 12:11:52 AM 43.6894 -41.9234 77° East 499 574 37,000  Level FlightAware Transoceanic
Mon 12:12:52 AM 43.7214 -41.7344 77° East 499 574 37,000  Level FlightAware Transoceanic
Mon 12:13:52 AM 43.7532 -41.5453 77° East 499 574 37,000  Level FlightAware Transoceanic
Mon 12:14:52 AM 43.7847 -41.3560 77° East 499 574 37,000  Level FlightAware Transoceanic
Mon 12:15:52 AM 43.8158 -41.1665 77° East 499 574 37,000  Level FlightAware Transoceanic
Mon 12:18:52 AM 43.9089 -40.5910 78° East 505 581 37,000  Level FlightAware Transoceanic
Mon 12:19:52 AM 43.9383 -40.4026 78° East 505 581 37,000  Level FlightAware Transoceanic
Mon 12:20:52 AM 43.9674 -40.2140 78° East 505 581 37,000  Level FlightAware Transoceanic
Mon 12:21:52 AM 43.9962 -40.0252 85° East 505 581 37,000  Level FlightAware Transoceanic
Mon 12:22:52 AM 44.0071 -39.8337 87° East 505 581 37,000  Level FlightAware Transoceanic
Mon 12:23:52 AM 44.0151 -39.6418 87° East 505 581 37,000  Level FlightAware Transoceanic
Mon 12:24:52 AM 44.0227 -39.4499 87° East 505 581 37,000  Level FlightAware Transoceanic
Mon 12:25:52 AM 44.0300 -39.2579 87° East 505 581 37,000  Level FlightAware Transoceanic
Mon 12:26:52 AM 44.0370 -39.0658 87° East 505 581 37,000  Level FlightAware Transoceanic
Mon 12:27:52 AM 44.0437 -38.8737 87° East 505 581 37,000  Level FlightAware Transoceanic
Mon 12:28:52 AM 44.0500 -38.6816 87° East 505 581 37,000  Level FlightAware Transoceanic
Mon 12:29:52 AM 44.0560 -38.4894 88° East 505 581 37,000  Level FlightAware Transoceanic
Mon 12:30:52 AM 44.0617 -38.2972 88° East 505 581 37,000  Level FlightAware Transoceanic
Mon 12:31:52 AM 44.0671 -38.1049 88° East 505 581 37,000  Level FlightAware Transoceanic
Mon 12:32:52 AM 44.0722 -37.9126 88° East 505 581 37,000  Level FlightAware Transoceanic
Mon 12:33:52 AM 44.0769 -37.7203 88° East 505 581 37,000  Level FlightAware Transoceanic
Mon 12:34:52 AM 44.0813 -37.5280 88° East 505 581 37,000  Level FlightAware Transoceanic
Mon 12:35:52 AM 44.0854 -37.3356 88° East 505 581 37,000  Level FlightAware Transoceanic
Mon 12:36:52 AM 44.0891 -37.1432 89° East 505 581 37,000  Level FlightAware Transoceanic
Mon 12:37:52 AM 44.0926 -36.9507 89° East 505 581 37,000  Level FlightAware Transoceanic
Mon 12:38:52 AM 44.0957 -36.7583 89° East 505 581 37,000  Level FlightAware Transoceanic
Mon 12:39:52 AM 44.0985 -36.5658 89° East 505 581 37,000  Level FlightAware Transoceanic
Mon 12:40:52 AM 44.1009 -36.3734 89° East 505 581 37,000  Level FlightAware Transoceanic
Mon 12:41:52 AM 44.1031 -36.1809 89° East 505 581 37,000  Level FlightAware Transoceanic
Mon 12:42:52 AM 44.1049 -35.9883 89° East 505 581 37,000  Level FlightAware Transoceanic
Mon 12:43:52 AM 44.1064 -35.7958 89° East 505 581 37,000  Level FlightAware Transoceanic
Mon 12:44:52 AM 44.1076 -35.6033 90° East 505 581 37,000  Level FlightAware Transoceanic
Mon 12:45:52 AM 44.1084 -35.4108 90° East 505 581 37,000  Level FlightAware Transoceanic
Mon 12:46:52 AM 44.1090 -35.2182 90° East 505 581 37,000  Level FlightAware Transoceanic
Mon 12:47:52 AM 44.1092 -35.0257 90° East 505 581 37,000  Level FlightAware Transoceanic
Mon 12:48:52 AM 44.1090 -34.8331 90° East 505 581 37,000  Level FlightAware Transoceanic
Mon 12:49:52 AM 44.1086 -34.6406 90° East 505 581 37,000  Level FlightAware Transoceanic
Mon 12:50:52 AM 44.1078 -34.4481 90° East 505 581 37,000  Level FlightAware Transoceanic
Mon 12:51:52 AM 44.1067 -34.2555 91° East 505 581 37,000  Level FlightAware Transoceanic
Mon 12:52:52 AM 44.1053 -34.0630 91° East 505 581 37,000  Level FlightAware Transoceanic
Mon 12:53:52 AM 44.1036 -33.8705 91° East 505 581 37,000  Level FlightAware Transoceanic
Mon 12:54:52 AM 44.1015 -33.6780 91° East 505 581 37,000  Level FlightAware Transoceanic
Mon 12:55:52 AM 44.0992 -33.4855 91° East 505 581 37,000  Level FlightAware Transoceanic
Mon 12:56:52 AM 44.0965 -33.2930 91° East 505 581 37,000  Level FlightAware Transoceanic
Mon 12:57:52 AM 44.0934 -33.1006 91° East 505 581 37,000  Level FlightAware Transoceanic
Mon 12:58:52 AM 44.0901 -32.9081 91° East 505 581 37,000  Level FlightAware Transoceanic
Mon 12:59:52 AM 44.0864 -32.7157 92° East 505 581 37,000  Level FlightAware Transoceanic
Mon 01:00:52 AM 44.0824 -32.5233 92° East 505 581 37,000  Level FlightAware Transoceanic
Mon 01:01:52 AM 44.0781 -32.3310 92° East 505 581 37,000  Level FlightAware Transoceanic
Mon 01:02:52 AM 44.0734 -32.1387 92° East 505 581 37,000  Level FlightAware Transoceanic
Mon 01:03:52 AM 44.0685 -31.9464 92° East 505 581 37,000  Level FlightAware Transoceanic
Mon 01:04:52 AM 44.0632 -31.7541 92° East 505 581 37,000  Level FlightAware Transoceanic
Mon 01:05:52 AM 44.0576 -31.5619 92° East 505 581 37,000  Level FlightAware Transoceanic
Mon 01:06:52 AM 44.0517 -31.3697 93° East 505 581 37,000  Level FlightAware Transoceanic
Mon 01:07:52 AM 44.0454 -31.1775 93° East 505 581 37,000  Level FlightAware Transoceanic
Mon 01:08:52 AM 44.0388 -30.9854 93° East 505 581 37,000  Level FlightAware Transoceanic
Mon 01:09:52 AM 44.0319 -30.7934 93° East 505 581 37,000  Level FlightAware Transoceanic
Mon 01:10:52 AM 44.0247 -30.6013 93° East 505 581 37,000  Level FlightAware Transoceanic
Mon 01:11:52 AM 44.0172 -30.4094 93° East 505 581 37,000  Level FlightAware Transoceanic
Mon 01:12:52 AM 44.0093 -30.2174 93° East 505 581 37,000  Level FlightAware Transoceanic
Mon 01:13:52 AM 44.0011 -30.0256 86° East 505 581 37,000  Level FlightAware Transoceanic
Mon 01:14:52 AM 44.0081 -29.8695 87° East  Level FlightAware Approximate
Mon 01:15:52 AM 44.0148 -29.7133 87° East  Level FlightAware Approximate
Mon 01:16:52 AM 44.0213 -29.5571 87° East  Level FlightAware Approximate
Mon 01:17:52 AM 44.0276 -29.4009 87° East  Level FlightAware Approximate
Mon 01:18:52 AM 44.0337 -29.2446 87° East  Level FlightAware Approximate
Mon 01:19:52 AM 44.0396 -29.0884 87° East  Level FlightAware Approximate
Mon 01:20:52 AM 44.0453 -28.9320 87° East  Level FlightAware Approximate
Mon 01:21:52 AM 44.0507 -28.7757 87° East  Level FlightAware Approximate
Mon 01:22:52 AM 44.0560 -28.6193 87° East  Level FlightAware Approximate
Mon 01:23:52 AM 44.0610 -28.4629 87° East  Level FlightAware Approximate
Mon 01:24:52 AM 44.0658 -28.3065 88° East  Level FlightAware Approximate
Mon 01:25:52 AM 44.0704 -28.1500 88° East  Level FlightAware Approximate
Mon 01:26:52 AM 44.0748 -27.9936 88° East  Level FlightAware Approximate
Mon 01:27:52 AM 44.0790 -27.8371 88° East  Level FlightAware Approximate
Mon 01:28:52 AM 44.0829 -27.6805 88° East  Level FlightAware Approximate
Mon 01:29:52 AM 44.0867 -27.5240 88° East  Level FlightAware Approximate
Mon 01:30:52 AM 44.0902 -27.3674 88° East  Level FlightAware Approximate
Mon 01:31:52 AM 44.0935 -27.2109 88° East  Level FlightAware Approximate
Mon 01:32:52 AM 44.0966 -27.0543 88° East  Level FlightAware Approximate
Mon 01:33:52 AM 44.0995 -26.8977 89° East  Level FlightAware Approximate
Mon 01:34:52 AM 44.1022 -26.7410 89° East  Level FlightAware Approximate
Mon 01:35:52 AM 44.1047 -26.5844 89° East  Level FlightAware Approximate
Mon 01:36:52 AM 44.1069 -26.4277 89° East  Level FlightAware Approximate
Mon 01:37:52 AM 44.1090 -26.2711 89° East  Level FlightAware Approximate
Mon 01:38:52 AM 44.1108 -26.1144 89° East  Level FlightAware Approximate
Mon 01:39:52 AM 44.1124 -25.9577 89° East  Level FlightAware Approximate
Mon 01:40:52 AM 44.1138 -25.8010 89° East  Level FlightAware Approximate
Mon 01:41:52 AM 44.1149 -25.6443 89° East  Level FlightAware Approximate
Mon 01:42:52 AM 44.1159 -25.4876 90° East  Level FlightAware Approximate
Mon 01:43:52 AM 44.1167 -25.3309 90° East  Level FlightAware Approximate
Mon 01:44:52 AM 44.1172 -25.1742 90° East  Level FlightAware Approximate
Mon 01:45:52 AM 44.1175 -25.0175 90° East  Level FlightAware Approximate
Mon 01:46:52 AM 44.1176 -24.8608 90° East  Level FlightAware Approximate
Mon 01:47:52 AM 44.1175 -24.7041 90° East  Level FlightAware Approximate
Mon 01:48:52 AM 44.1172 -24.5474 90° East  Level FlightAware Approximate
Mon 01:49:52 AM 44.1167 -24.3907 90° East  Level FlightAware Approximate
Mon 01:50:52 AM 44.1159 -24.2340 90° East  Level FlightAware Approximate
Mon 01:51:52 AM 44.1149 -24.0773 91° East  Level FlightAware Approximate
Mon 01:52:52 AM 44.1138 -23.9206 91° East  Level FlightAware Approximate
Mon 01:53:52 AM 44.1124 -23.7639 91° East  Level FlightAware Approximate
Mon 01:54:52 AM 44.1108 -23.6072 91° East  Level FlightAware Approximate
Mon 01:55:52 AM 44.1089 -23.4505 91° East  Level FlightAware Approximate
Mon 01:56:52 AM 44.1068 -23.2939 91° East  Level FlightAware Approximate
Mon 01:57:52 AM 44.1045 -23.1372 91° East  Level FlightAware Approximate
Mon 01:58:52 AM 44.1020 -22.9806 91° East  Level FlightAware Approximate
Mon 01:59:52 AM 44.0992 -22.8240 91° East  Level FlightAware Approximate
Mon 02:00:52 AM 44.0963 -22.6674 92° East  Level FlightAware Approximate
Mon 02:01:52 AM 44.0931 -22.5108 92° East  Level FlightAware Approximate
Mon 02:02:52 AM 44.0897 -22.3542 92° East  Level FlightAware Approximate
Mon 02:03:52 AM 44.0861 -22.1976 92° East  Level FlightAware Approximate
Mon 02:04:52 AM 44.0823 -22.0411 92° East  Level FlightAware Approximate
Mon 02:05:52 AM 44.0783 -21.8846 92° East  Level FlightAware Approximate
Mon 02:06:52 AM 44.0741 -21.7281 92° East  Level FlightAware Approximate
Mon 02:07:52 AM 44.0696 -21.5716 92° East  Level FlightAware Approximate
Mon 02:08:52 AM 44.0650 -21.4152 92° East  Level FlightAware Approximate
Mon 02:09:52 AM 44.0601 -21.2588 93° East  Level FlightAware Approximate
Mon 02:10:52 AM 44.0550 -21.1024 93° East  Level FlightAware Approximate
Mon 02:11:52 AM 44.0497 -20.9460 93° East  Level FlightAware Approximate
Mon 02:12:52 AM 44.0442 -20.7897 93° East  Level FlightAware Approximate
Mon 02:13:52 AM 44.0384 -20.6334 93° East  Level FlightAware Approximate
Mon 02:14:52 AM 44.0325 -20.4771 93° East  Level FlightAware Approximate
Mon 02:15:52 AM 44.0263 -20.3208 93° East  Level FlightAware Approximate
Mon 02:16:52 AM 44.0200 -20.1646 93° East  Level FlightAware Approximate
Mon 02:17:52 AM 44.0134 -20.0084 93° East  Level FlightAware Approximate
Mon 02:18:52 AM 44.0066 -19.8523 94° East  Level FlightAware Approximate
Mon 02:19:52 AM 43.9996 -19.6962 94° East  Level FlightAware Approximate
Mon 02:20:52 AM 43.9924 -19.5401 94° East  Level FlightAware Approximate
Mon 02:21:52 AM 43.9850 -19.3841 94° East  Level FlightAware Approximate
Mon 02:22:52 AM 43.9773 -19.2281 94° East  Level FlightAware Approximate
Mon 02:23:52 AM 43.9695 -19.0721 94° East  Level FlightAware Approximate
Mon 02:24:52 AM 43.9614 -18.9162 94° East  Level FlightAware Approximate
Mon 02:25:52 AM 43.9531 -18.7604 94° East  Level FlightAware Approximate
Mon 02:26:52 AM 43.9446 -18.6045 94° East  Level FlightAware Approximate
Mon 02:27:52 AM 43.9359 -18.4488 94° East  Level FlightAware Approximate
Mon 02:28:52 AM 43.9270 -18.2930 95° East  Level FlightAware Approximate
Mon 02:29:52 AM 43.9179 -18.1374 95° East  Level FlightAware Approximate
Mon 02:30:52 AM 43.9085 -17.9817 95° East  Level FlightAware Approximate
Mon 02:31:52 AM 43.8990 -17.8261 95° East  Level FlightAware Approximate
Mon 02:32:52 AM 43.8892 -17.6706 95° East  Level FlightAware Approximate
Mon 02:33:52 AM 43.8792 -17.5151 95° East  Level FlightAware Approximate
Mon 02:34:52 AM 43.8691 -17.3597 95° East  Level FlightAware Approximate
Mon 02:35:52 AM 43.8587 -17.2043 95° East  Level FlightAware Approximate
Mon 02:36:52 AM 43.8481 -17.0490 95° East  Level FlightAware Approximate
Mon 02:37:52 AM 43.8373 -16.8937 96° East  Level FlightAware Approximate
Mon 02:38:52 AM 43.8262 -16.7385 96° East  Level FlightAware Approximate
Mon 02:39:52 AM 43.8150 -16.5833 96° East  Level FlightAware Approximate
Mon 02:40:52 AM 43.8036 -16.4282 96° East  Level FlightAware Approximate
Mon 02:41:52 AM 43.7919 -16.2732 96° East  Level FlightAware Approximate
Mon 02:42:52 AM 43.7801 -16.1182 96° East  Level FlightAware Approximate
Mon 02:43:52 AM 43.7680 -15.9633 96° East  Level FlightAware Approximate
Mon 02:44:52 AM 43.7557 -15.8085 96° East  Level FlightAware Approximate
Mon 02:45:52 AM 43.7432 -15.6537 96° East  Level FlightAware Approximate
Mon 02:46:52 AM 43.7305 -15.4990 97° East  Level FlightAware Approximate
Mon 02:47:52 AM 43.7176 -15.3443 97° East  Level FlightAware Approximate
Mon 02:48:52 AM 43.7045 -15.1897 97° East  Level FlightAware Approximate
Mon 02:49:52 AM 43.6912 -15.0352 97° East  Level FlightAware Approximate
Mon 02:50:52 AM 43.6777 -14.8808 97° East  Level FlightAware Approximate
Mon 02:51:52 AM 43.6639 -14.7264 97° East  Level FlightAware Approximate
Mon 02:52:52 AM 43.6500 -14.5721 97° East  Level FlightAware Approximate
Mon 02:53:52 AM 43.6358 -14.4179 97° East  Level FlightAware Approximate
Mon 02:54:52 AM 43.6215 -14.2637 97° East  Level FlightAware Approximate
Mon 02:55:52 AM 43.6069 -14.1096 97° East  Level FlightAware Approximate
Mon 02:56:52 AM 43.5921 -13.9556 98° East  Level FlightAware Approximate
Mon 02:57:52 AM 43.5771 -13.8017 98° East  Level FlightAware Approximate
Mon 02:58:52 AM 43.5620 -13.6478 98° East  Level FlightAware Approximate
Mon 02:59:52 AM 43.5466 -13.4940 98° East  Level FlightAware Approximate
Mon 03:00:52 AM 43.5310 -13.3403 98° East  Level FlightAware Approximate
Mon 03:01:52 AM 43.5151 -13.1867 98° East  Level FlightAware Approximate
Mon 03:02:52 AM 43.4991 -13.0332 96° East  Level FlightAware Approximate
Mon 03:03:52 AM 43.4871 -12.8794 109° East  Level FlightAware Approximate
Mon 03:04:52 AM 43.4508 -12.7327 109° East  Level FlightAware Approximate
Mon 03:05:52 AM 43.4142 -12.5862 109° East  Level FlightAware Approximate
Mon 03:06:52 AM 43.3775 -12.4398 109° East  Level FlightAware Approximate
Mon 03:07:52 AM 43.3406 -12.2936 109° East  Level FlightAware Approximate
Mon 03:08:52 AM 43.3035 -12.1476 109° East  Level FlightAware Approximate
Mon 03:09:52 AM 43.2663 -12.0018 109° East  Level FlightAware Approximate
Mon 03:10:52 AM 43.2288 -11.8561 109° East  Level FlightAware Approximate
Mon 03:11:52 AM 43.1912 -11.7107 110° East  Level FlightAware Approximate
Mon 03:12:52 AM 43.1533 -11.5654 110° East  Level FlightAware Approximate
Mon 03:13:52 AM 43.1153 -11.4203 110° East  Level FlightAware Approximate
Mon 03:14:52 AM 43.0771 -11.2754 110° East  Level FlightAware Approximate
Mon 03:15:52 AM 43.0387 -11.1306 110° East  Level FlightAware Approximate
Mon 03:16:52 AM 43.0002 -10.9861 110° East  Level FlightAware Approximate
Mon 03:17:52 AM 42.9614 -10.8417 110° East  Level FlightAware Approximate
Mon 03:18:52 AM 42.9225 -10.6975 110° East  Level FlightAware Approximate
Mon 03:19:52 AM 42.8834 -10.5535 110° East  Level FlightAware Approximate
Mon 03:20:52 AM 42.8441 -10.4097 110° East  Level FlightAware Approximate
Mon 03:21:52 AM 42.8047 -10.2660 111° Southeast  Level FlightAware Approximate
Mon 03:22:52 AM 42.7650 -10.1226 111° Southeast  Level FlightAware Approximate
Mon 03:23:52 AM 42.7252 -9.9793 111° Southeast  Level FlightAware Approximate
Mon 03:24:52 AM 42.6852 -9.8362 111° Southeast  Level FlightAware Approximate
Mon 03:25:52 AM 42.6450 -9.6933 111° Southeast  Level FlightAware Approximate
Mon 03:26:52 AM 42.6040 -9.5509 111° Southeast  Level FlightAware Approximate
Mon 03:27:52 AM 42.5628 -9.4087 112° Southeast  Level FlightAware Approximate
Mon 03:28:52 AM 42.5215 -9.2667 114° Southeast  Level FlightAware Approximate
Mon 03:29:52 AM 42.4763 -9.1269 114° Southeast  Level FlightAware Approximate
Mon 03:30:52 AM 42.4312 -8.9879 114° Southeast  Level FlightAware Approximate
Mon 03:31:52 AM 42.3859 -8.8491 114° Southeast  Level FlightAware Approximate
Mon 03:32:52 AM 42.3405 -8.7106 114° Southeast  Level FlightAware Approximate
Mon 03:33:52 AM 42.2949 -8.5722 114° Southeast  Level FlightAware Approximate
Mon 03:34:52 AM 42.2491 -8.4340 114° Southeast  Level FlightAware Approximate
Mon 03:35:52 AM 42.2031 -8.2960 114° Southeast  Level FlightAware Approximate
Mon 03:36:52 AM 42.1570 -8.1582 114° Southeast  Level FlightAware Approximate
Mon 03:37:52 AM 42.1107 -8.0206 114° Southeast  Level FlightAware Approximate
Mon 03:38:52 AM 42.0643 -7.8833 115° Southeast  Level FlightAware Approximate
Mon 03:39:52 AM 42.0177 -7.7461 115° Southeast  Level FlightAware Approximate
Mon 03:40:52 AM 41.9709 -7.6091 115° Southeast  Level FlightAware Approximate
Mon 03:41:52 AM 41.9240 -7.4723 115° Southeast  Level FlightAware Approximate
Mon 03:42:52 AM 41.8769 -7.3358 115° Southeast  Level FlightAware Approximate
Mon 03:43:52 AM 41.8296 -7.1994 115° Southeast  Level FlightAware Approximate
Mon 03:44:52 AM 41.7822 -7.0632 115° Southeast  Level FlightAware Approximate
Mon 03:45:52 AM 41.7346 -6.9273 115° Southeast  Level FlightAware Approximate
Mon 03:46:52 AM 41.6869 -6.7915 115° Southeast  Level FlightAware Approximate
Mon 03:47:52 AM 41.6390 -6.6559 115° Southeast  Level FlightAware Approximate
Mon 03:48:52 AM 41.5909 -6.5206 115° Southeast  Level FlightAware Approximate
Mon 03:49:52 AM 41.5427 -6.3854 116° Southeast  Level FlightAware Approximate
Mon 03:50:52 AM 41.4944 -6.2504 116° Southeast  Level FlightAware Approximate
Mon 03:51:52 AM 41.4458 -6.1157 116° Southeast  Level FlightAware Approximate
Mon 03:52:52 AM 41.3971 -5.9811 116° Southeast  Level FlightAware Approximate
Mon 03:53:52 AM 41.3483 -5.8468 116° Southeast  Level FlightAware Approximate
Mon 03:54:52 AM 41.2993 -5.7126 116° Southeast  Level FlightAware Approximate
Mon 03:55:52 AM 41.2501 -5.5787 116° Southeast  Level FlightAware Approximate
Mon 03:56:52 AM 41.2008 -5.4449 116° Southeast  Level FlightAware Approximate
Mon 03:57:52 AM 41.1514 -5.3114 116° Southeast  Level FlightAware Approximate
Mon 03:58:52 AM 41.1017 -5.1780 116° Southeast  Level FlightAware Approximate
Mon 03:59:52 AM 41.0520 -5.0449 116° Southeast  Level FlightAware Approximate
Mon 04:00:52 AM 41.0020 -4.9119 117° Southeast  Level FlightAware Approximate
Mon 04:01:52 AM 40.9520 -4.7792 117° Southeast  Level FlightAware Approximate
Mon 04:02:52 AM 40.9017 -4.6467 117° Southeast  Level FlightAware Approximate
Mon 04:03:52 AM 40.8514 -4.5143 117° Southeast  Level FlightAware Approximate
Mon 04:04:52 AM 40.8008 -4.3822 117° Southeast  Level FlightAware Approximate
Mon 04:05:52 AM 40.7501 -4.2502 117° Southeast  Level FlightAware Approximate
Mon 04:06:52 AM 40.6993 -4.1185 97° East  Level FlightAware Approximate
Mon 04:07:52 AM 40.6854 -3.9780 125° Southeast  Level FlightAware Approximate
Mon 04:08:52 AM 40.6206 -3.8579 125° Southeast  Level FlightAware Approximate

Login

Don't have an account? Register now (free) for customized features, flight alerts, and more!